sensor_id;sensor_type;location;lat;lon;timestamp;pressure;altitude;pressure_sealevel;temperature;humidity
16331;BME280;8275;48.206;16.340;2022-11-20T00:01:36;98860.84;;;8.66;44.42
16331;BME280;8275;48.206;16.340;2022-11-20T00:04:05;98857.59;;;8.69;44.52
16331;BME280;8275;48.206;16.340;2022-11-20T00:06:35;98847.78;;;8.68;44.30
16331;BME280;8275;48.206;16.340;2022-11-20T00:09:03;98848.59;;;8.68;44.44
16331;BME280;8275;48.206;16.340;2022-11-20T00:11:32;98851.31;;;8.68;44.39
16331;BME280;8275;48.206;16.340;2022-11-20T00:14:01;98853.25;;;8.68;44.36
16331;BME280;8275;48.206;16.340;2022-11-20T00:16:32;98855.13;;;8.67;44.38
16331;BME280;8275;48.206;16.340;2022-11-20T00:19:01;98862.75;;;8.65;44.29
16331;BME280;8275;48.206;16.340;2022-11-20T00:21:30;98861.09;;;8.64;44.58
16331;BME280;8275;48.206;16.340;2022-11-20T00:24:00;98859.69;;;8.62;44.07
16331;BME280;8275;48.206;16.340;2022-11-20T00:26:29;98856.91;;;8.57;43.98
16331;BME280;8275;48.206;16.340;2022-11-20T00:28:59;98862.06;;;8.53;44.21
16331;BME280;8275;48.206;16.340;2022-11-20T00:31:28;98860.38;;;8.52;44.26
16331;BME280;8275;48.206;16.340;2022-11-20T00:33:57;98866.38;;;8.49;44.12
16331;BME280;8275;48.206;16.340;2022-11-20T00:36:28;98868.78;;;8.45;44.18
16331;BME280;8275;48.206;16.340;2022-11-20T00:38:59;98868.47;;;8.42;44.12
16331;BME280;8275;48.206;16.340;2022-11-20T00:41:29;98887.78;;;8.40;44.17
16331;BME280;8275;48.206;16.340;2022-11-20T00:43:57;98886.16;;;8.39;44.09
16331;BME280;8275;48.206;16.340;2022-11-20T00:46:27;98889.16;;;8.38;44.08
16331;BME280;8275;48.206;16.340;2022-11-20T00:48:57;98896.50;;;8.37;43.83
16331;BME280;8275;48.206;16.340;2022-11-20T00:51:26;98898.66;;;8.35;44.13
16331;BME280;8275;48.206;16.340;2022-11-20T00:53:56;98897.84;;;8.35;44.09
16331;BME280;8275;48.206;16.340;2022-11-20T00:56:26;98902.72;;;8.33;43.95
16331;BME280;8275;48.206;16.340;2022-11-20T00:58:55;98904.88;;;8.31;43.86
16331;BME280;8275;48.206;16.340;2022-11-20T01:01:26;98903.94;;;8.25;44.01
16331;BME280;8275;48.206;16.340;2022-11-20T01:03:57;98897.91;;;8.23;43.92
16331;BME280;8275;48.206;16.340;2022-11-20T01:06:29;98901.69;;;8.22;43.84
16331;BME280;8275;48.206;16.340;2022-11-20T01:09:00;98904.94;;;8.19;43.96
16331;BME280;8275;48.206;16.340;2022-11-20T01:11:33;98901.13;;;8.20;44.15
16331;BME280;8275;48.206;16.340;2022-11-20T01:14:04;98910.13;;;8.21;44.01
16331;BME280;8275;48.206;16.340;2022-11-20T01:16:35;98910.41;;;8.19;44.28
16331;BME280;8275;48.206;16.340;2022-11-20T01:19:06;98912.53;;;8.17;44.27
16331;BME280;8275;48.206;16.340;2022-11-20T01:21:38;98905.44;;;8.16;44.46
16331;BME280;8275;48.206;16.340;2022-11-20T01:24:08;98913.03;;;8.14;44.38
16331;BME280;8275;48.206;16.340;2022-11-20T01:26:41;98911.16;;;8.15;44.29
16331;BME280;8275;48.206;16.340;2022-11-20T01:29:13;98907.34;;;8.16;44.32
16331;BME280;8275;48.206;16.340;2022-11-20T01:31:43;98908.16;;;8.16;44.48
16331;BME280;8275;48.206;16.340;2022-11-20T01:34:15;98897.00;;;8.18;44.35
16331;BME280;8275;48.206;16.340;2022-11-20T01:36:44;98894.03;;;8.19;44.39
16331;BME280;8275;48.206;16.340;2022-11-20T01:39:16;98903.00;;;8.20;44.31
16331;BME280;8275;48.206;16.340;2022-11-20T01:41:48;98902.78;;;8.21;44.41
16331;BME280;8275;48.206;16.340;2022-11-20T01:44:53;98900.56;;;8.18;44.37
16331;BME280;8275;48.206;16.340;2022-11-20T01:47:30;98886.66;;;8.20;44.32
16331;BME280;8275;48.206;16.340;2022-11-20T01:50:05;98881.19;;;8.20;44.45
16331;BME280;8275;48.206;16.340;2022-11-20T01:52:38;98896.50;;;8.21;44.41
16331;BME280;8275;48.206;16.340;2022-11-20T01:55:10;98891.34;;;8.24;44.55
16331;BME280;8275;48.206;16.340;2022-11-20T01:57:44;98882.72;;;8.27;44.57
16331;BME280;8275;48.206;16.340;2022-11-20T02:00:17;98901.06;;;8.32;44.71
16331;BME280;8275;48.206;16.340;2022-11-20T02:02:50;98902.47;;;8.34;44.63
16331;BME280;8275;48.206;16.340;2022-11-20T02:05:25;98912.88;;;8.37;44.86
16331;BME280;8275;48.206;16.340;2022-11-20T02:07:56;98913.19;;;8.41;44.75
16331;BME280;8275;48.206;16.340;2022-11-20T02:10:26;98907.25;;;8.44;44.77
16331;BME280;8275;48.206;16.340;2022-11-20T02:12:57;98916.00;;;8.46;44.77
16331;BME280;8275;48.206;16.340;2022-11-20T02:15:43;98909.72;;;8.45;44.86
16331;BME280;8275;48.206;16.340;2022-11-20T02:18:14;98900.47;;;8.46;44.84
16331;BME280;8275;48.206;16.340;2022-11-20T02:20:48;98908.88;;;8.45;44.84
16331;BME280;8275;48.206;16.340;2022-11-20T02:23:23;98907.81;;;8.46;45.03
16331;BME280;8275;48.206;16.340;2022-11-20T02:25:56;98906.97;;;8.45;45.02
16331;BME280;8275;48.206;16.340;2022-11-20T02:28:25;98915.16;;;8.45;45.04
16331;BME280;8275;48.206;16.340;2022-11-20T02:30:53;98916.25;;;8.44;45.01
16331;BME280;8275;48.206;16.340;2022-11-20T02:33:22;98907.81;;;8.46;44.96
16331;BME280;8275;48.206;16.340;2022-11-20T02:35:50;98914.34;;;8.45;44.87
16331;BME280;8275;48.206;16.340;2022-11-20T02:38:19;98906.69;;;8.42;45.00
16331;BME280;8275;48.206;16.340;2022-11-20T02:40:48;98900.38;;;8.41;44.94
16331;BME280;8275;48.206;16.340;2022-11-20T02:43:23;98895.97;;;8.40;44.99
16331;BME280;8275;48.206;16.340;2022-11-20T02:45:51;98903.38;;;8.40;45.06
16331;BME280;8275;48.206;16.340;2022-11-20T02:48:19;98897.91;;;8.40;45.07
16331;BME280;8275;48.206;16.340;2022-11-20T02:50:53;98899.81;;;8.39;45.06
16331;BME280;8275;48.206;16.340;2022-11-20T02:53:21;98898.16;;;8.38;45.03
16331;BME280;8275;48.206;16.340;2022-11-20T02:55:50;98900.06;;;8.38;45.12
16331;BME280;8275;48.206;16.340;2022-11-20T02:58:18;98896.25;;;8.39;45.32
16331;BME280;8275;48.206;16.340;2022-11-20T03:00:48;98891.94;;;8.43;45.05
16331;BME280;8275;48.206;16.340;2022-11-20T03:03:16;98887.31;;;8.43;45.07
16331;BME280;8275;48.206;16.340;2022-11-20T03:05:45;98881.84;;;8.43;45.10
16331;BME280;8275;48.206;16.340;2022-11-20T03:08:13;98887.31;;;8.43;44.86
16331;BME280;8275;48.206;16.340;2022-11-20T03:10:41;98871.41;;;8.40;44.92
16331;BME280;8275;48.206;16.340;2022-11-20T03:13:10;98860.28;;;8.42;45.13
16331;BME280;8275;48.206;16.340;2022-11-20T03:15:39;98857.53;;;8.42;45.09
16331;BME280;8275;48.206;16.340;2022-11-20T03:18:09;98853.41;;;8.39;45.14
16331;BME280;8275;48.206;16.340;2022-11-20T03:20:37;98856.13;;;8.39;45.12
16331;BME280;8275;48.206;16.340;2022-11-20T03:23:06;98856.41;;;8.38;45.19
16331;BME280;8275;48.206;16.340;2022-11-20T03:25:34;98851.75;;;8.38;45.00
16331;BME280;8275;48.206;16.340;2022-11-20T03:28:02;98850.94;;;8.38;45.06
16331;BME280;8275;48.206;16.340;2022-11-20T03:30:31;98845.50;;;8.38;45.06
16331;BME280;8275;48.206;16.340;2022-11-20T03:32:59;98846.56;;;8.37;44.94
16331;BME280;8275;48.206;16.340;2022-11-20T03:35:29;98843.81;;;8.37;45.18
16331;BME280;8275;48.206;16.340;2022-11-20T03:37:58;98855.56;;;8.37;45.22
16331;BME280;8275;48.206;16.340;2022-11-20T03:40:26;98854.16;;;8.35;45.23
16331;BME280;8275;48.206;16.340;2022-11-20T03:42:54;98852.19;;;8.30;45.17
16331;BME280;8275;48.206;16.340;2022-11-20T03:45:23;98857.31;;;8.27;45.13
16331;BME280;8275;48.206;16.340;2022-11-20T03:47:51;98853.97;;;8.25;45.40
16331;BME280;8275;48.206;16.340;2022-11-20T03:50:20;98853.78;;;8.26;45.44
16331;BME280;8275;48.206;16.340;2022-11-20T03:52:49;98848.31;;;8.26;45.25
16331;BME280;8275;48.206;16.340;2022-11-20T03:55:18;98849.13;;;8.27;45.27
16331;BME280;8275;48.206;16.340;2022-11-20T03:57:46;98857.88;;;8.29;45.34
16331;BME280;8275;48.206;16.340;2022-11-20T04:00:15;98847.56;;;8.31;45.39
16331;BME280;8275;48.206;16.340;2022-11-20T04:02:44;98840.75;;;8.33;45.39
16331;BME280;8275;48.206;16.340;2022-11-20T04:05:12;98844.88;;;8.36;45.32
16331;BME280;8275;48.206;16.340;2022-11-20T04:07:41;98837.03;;;8.39;45.28
16331;BME280;8275;48.206;16.340;2022-11-20T04:10:11;98840.91;;;8.43;45.39
16331;BME280;8275;48.206;16.340;2022-11-20T04:12:39;98838.50;;;8.47;45.32
16331;BME280;8275;48.206;16.340;2022-11-20T04:15:11;98829.50;;;8.46;45.17
16331;BME280;8275;48.206;16.340;2022-11-20T04:17:39;98828.66;;;8.46;45.24
16331;BME280;8275;48.206;16.340;2022-11-20T04:20:08;98823.69;;;8.43;44.92
16331;BME280;8275;48.206;16.340;2022-11-20T04:22:37;98819.56;;;8.40;45.05
16331;BME280;8275;48.206;16.340;2022-11-20T04:25:06;98818.44;;;8.36;45.31
16331;BME280;8275;48.206;16.340;2022-11-20T04:27:36;98821.66;;;8.33;45.21
16331;BME280;8275;48.206;16.340;2022-11-20T04:30:06;98824.34;;;8.28;45.40
16331;BME280;8275;48.206;16.340;2022-11-20T04:32:35;98818.03;;;8.28;45.33
16331;BME280;8275;48.206;16.340;2022-11-20T04:35:04;98815.31;;;8.28;45.55
16331;BME280;8275;48.206;16.340;2022-11-20T04:37:32;98809.59;;;8.29;45.55
16331;BME280;8275;48.206;16.340;2022-11-20T04:40:01;98801.19;;;8.31;45.54
16331;BME280;8275;48.206;16.340;2022-11-20T04:42:29;98801.75;;;8.33;45.51
16331;BME280;8275;48.206;16.340;2022-11-20T04:44:59;98798.19;;;8.32;45.34
16331;BME280;8275;48.206;16.340;2022-11-20T04:47:27;98787.28;;;8.32;45.34
16331;BME280;8275;48.206;16.340;2022-11-20T04:49:56;98782.88;;;8.31;45.29
16331;BME280;8275;48.206;16.340;2022-11-20T04:52:24;98781.81;;;8.32;45.30
16331;BME280;8275;48.206;16.340;2022-11-20T04:54:52;98783.22;;;8.35;45.41
16331;BME280;8275;48.206;16.340;2022-11-20T04:57:21;98783.50;;;8.38;45.46
16331;BME280;8275;48.206;16.340;2022-11-20T04:59:50;98773.75;;;8.42;45.50
16331;BME280;8275;48.206;16.340;2022-11-20T05:02:20;98776.53;;;8.47;45.58
16331;BME280;8275;48.206;16.340;2022-11-20T05:04:48;98775.19;;;8.50;45.52
16331;BME280;8275;48.206;16.340;2022-11-20T05:07:17;98774.44;;;8.55;45.50
16331;BME280;8275;48.206;16.340;2022-11-20T05:09:45;98772.28;;;8.57;45.44
16331;BME280;8275;48.206;16.340;2022-11-20T05:12:14;98782.13;;;8.58;45.47
16331;BME280;8275;48.206;16.340;2022-11-20T05:14:42;98790.03;;;8.59;45.47
16331;BME280;8275;48.206;16.340;2022-11-20T05:17:11;98781.63;;;8.61;45.53
16331;BME280;8275;48.206;16.340;2022-11-20T05:19:41;98776.16;;;8.61;45.53
16331;BME280;8275;48.206;16.340;2022-11-20T05:22:09;98787.88;;;8.61;45.38
16331;BME280;8275;48.206;16.340;2022-11-20T05:24:38;98791.16;;;8.58;45.45
16331;BME280;8275;48.206;16.340;2022-11-20T05:27:06;98794.69;;;8.59;45.57
16331;BME280;8275;48.206;16.340;2022-11-20T05:29:34;98802.56;;;8.55;45.49
16331;BME280;8275;48.206;16.340;2022-11-20T05:32:03;98793.53;;;8.55;45.52
16331;BME280;8275;48.206;16.340;2022-11-20T05:34:34;98799.53;;;8.52;45.41
16331;BME280;8275;48.206;16.340;2022-11-20T05:37:04;98806.88;;;8.51;45.16
16331;BME280;8275;48.206;16.340;2022-11-20T05:39:32;98807.97;;;8.50;45.44
16331;BME280;8275;48.206;16.340;2022-11-20T05:42:00;98814.25;;;8.51;45.53
16331;BME280;8275;48.206;16.340;2022-11-20T05:44:46;98804.38;;;8.49;45.64
16331;BME280;8275;48.206;16.340;2022-11-20T05:47:14;98817.81;;;8.51;45.64
16331;BME280;8275;48.206;16.340;2022-11-20T05:49:43;98808.53;;;8.52;45.64
16331;BME280;8275;48.206;16.340;2022-11-20T05:52:12;98807.47;;;8.53;45.62
16331;BME280;8275;48.206;16.340;2022-11-20T05:54:41;98806.38;;;8.54;45.59
16331;BME280;8275;48.206;16.340;2022-11-20T05:57:09;98805.28;;;8.55;45.65
16331;BME280;8275;48.206;16.340;2022-11-20T05:59:38;98806.13;;;8.56;45.70
16331;BME280;8275;48.206;16.340;2022-11-20T06:02:06;98815.16;;;8.56;45.69
16331;BME280;8275;48.206;16.340;2022-11-20T06:04:34;98818.13;;;8.55;45.65
16331;BME280;8275;48.206;16.340;2022-11-20T06:07:04;98823.56;;;8.55;45.54
16331;BME280;8275;48.206;16.340;2022-11-20T06:09:34;98821.94;;;8.54;45.67
16331;BME280;8275;48.206;16.340;2022-11-20T06:12:03;98821.09;;;8.53;45.72
16331;BME280;8275;48.206;16.340;2022-11-20T06:14:32;98824.66;;;8.54;45.71
16331;BME280;8275;48.206;16.340;2022-11-20T06:17:00;98826.84;;;8.52;45.64
16331;BME280;8275;48.206;16.340;2022-11-20T06:19:29;98830.88;;;8.49;45.64
16331;BME280;8275;48.206;16.340;2022-11-20T06:21:57;98827.59;;;8.47;45.69
16331;BME280;8275;48.206;16.340;2022-11-20T06:24:25;98830.25;;;8.42;45.72
16331;BME280;8275;48.206;16.340;2022-11-20T06:26:55;98833.47;;;8.39;45.76
16331;BME280;8275;48.206;16.340;2022-11-20T06:29:24;98826.03;;;8.34;45.88
16331;BME280;8275;48.206;16.340;2022-11-20T06:31:59;98832.56;;;8.33;45.95
16331;BME280;8275;48.206;16.340;2022-11-20T06:34:28;98839.97;;;8.33;45.90
16331;BME280;8275;48.206;16.340;2022-11-20T06:36:56;98847.31;;;8.32;46.09
16331;BME280;8275;48.206;16.340;2022-11-20T06:39:24;98848.38;;;8.31;46.03
16331;BME280;8275;48.206;16.340;2022-11-20T06:41:54;98858.50;;;8.31;46.16
16331;BME280;8275;48.206;16.340;2022-11-20T06:44:25;98855.75;;;8.31;46.02
16331;BME280;8275;48.206;16.340;2022-11-20T06:46:53;98861.78;;;8.33;45.98
16331;BME280;8275;48.206;16.340;2022-11-20T06:49:22;98858.22;;;8.32;46.09
16331;BME280;8275;48.206;16.340;2022-11-20T06:51:51;98858.78;;;8.34;46.12
16331;BME280;8275;48.206;16.340;2022-11-20T06:54:19;98869.72;;;8.34;46.07
16331;BME280;8275;48.206;16.340;2022-11-20T06:56:47;98871.38;;;8.35;46.21
16331;BME280;8275;48.206;16.340;2022-11-20T06:59:17;98873.00;;;8.36;45.99
16331;BME280;8275;48.206;16.340;2022-11-20T07:01:46;98887.50;;;8.37;46.02
16331;BME280;8275;48.206;16.340;2022-11-20T07:04:15;98875.75;;;8.36;46.19
16331;BME280;8275;48.206;16.340;2022-11-20T07:06:43;98882.88;;;8.37;45.76
16331;BME280;8275;48.206;16.340;2022-11-20T07:09:11;98887.22;;;8.38;46.19
16331;BME280;8275;48.206;16.340;2022-11-20T07:11:40;98885.06;;;8.40;46.12
16331;BME280;8275;48.206;16.340;2022-11-20T07:14:08;98886.47;;;8.43;46.12
16331;BME280;8275;48.206;16.340;2022-11-20T07:16:38;98890.59;;;8.45;46.15
16331;BME280;8275;48.206;16.340;2022-11-20T07:19:06;98882.97;;;8.47;46.16
16331;BME280;8275;48.206;16.340;2022-11-20T07:21:35;98885.22;;;8.51;46.45
16331;BME280;8275;48.206;16.340;2022-11-20T07:24:04;98899.22;;;8.54;46.22
16331;BME280;8275;48.206;16.340;2022-11-20T07:26:32;98891.31;;;8.58;46.14
16331;BME280;8275;48.206;16.340;2022-11-20T07:29:01;98891.63;;;8.61;46.28
16331;BME280;8275;48.206;16.340;2022-11-20T07:31:29;98889.25;;;8.65;46.32
16331;BME280;8275;48.206;16.340;2022-11-20T07:33:59;98895.00;;;8.68;46.27
16331;BME280;8275;48.206;16.340;2022-11-20T07:36:27;98887.66;;;8.69;46.27
16331;BME280;8275;48.206;16.340;2022-11-20T07:38:56;98890.38;;;8.69;46.27
16331;BME280;8275;48.206;16.340;2022-11-20T07:41:24;98895.34;;;8.72;46.28
16331;BME280;8275;48.206;16.340;2022-11-20T07:43:52;98898.91;;;8.72;46.31
16331;BME280;8275;48.206;16.340;2022-11-20T07:46:21;98902.44;;;8.73;46.23
16331;BME280;8275;48.206;16.340;2022-11-20T07:48:49;98909.81;;;8.72;46.12
16331;BME280;8275;48.206;16.340;2022-11-20T07:51:19;98901.63;;;8.72;46.16
16331;BME280;8275;48.206;16.340;2022-11-20T07:53:52;98900.81;;;8.72;46.00
16331;BME280;8275;48.206;16.340;2022-11-20T07:56:21;98906.25;;;8.72;46.00
16331;BME280;8275;48.206;16.340;2022-11-20T07:58:49;98918.25;;;8.71;45.95
16331;BME280;8275;48.206;16.340;2022-11-20T08:01:17;98913.88;;;8.70;46.08
16331;BME280;8275;48.206;16.340;2022-11-20T08:03:46;98914.19;;;8.73;46.00
16331;BME280;8275;48.206;16.340;2022-11-20T08:06:14;98906.34;;;8.77;46.25
16331;BME280;8275;48.206;16.340;2022-11-20T08:08:44;98897.13;;;8.83;46.25
16331;BME280;8275;48.206;16.340;2022-11-20T08:11:12;98907.28;;;8.87;46.34
16331;BME280;8275;48.206;16.340;2022-11-20T08:13:58;98904.88;;;8.91;46.34
16331;BME280;8275;48.206;16.340;2022-11-20T08:16:45;98898.06;;;8.93;46.10
16331;BME280;8275;48.206;16.340;2022-11-20T08:19:15;98905.75;;;8.96;46.29
16331;BME280;8275;48.206;16.340;2022-11-20T08:21:44;98903.34;;;9.00;45.98
16331;BME280;8275;48.206;16.340;2022-11-20T08:24:14;98911.59;;;9.05;46.00
16331;BME280;8275;48.206;16.340;2022-11-20T08:26:42;98904.28;;;9.10;45.99
16331;BME280;8275;48.206;16.340;2022-11-20T08:29:10;98910.03;;;9.14;45.93
16331;BME280;8275;48.206;16.340;2022-11-20T08:31:39;98908.22;;;9.19;46.19
16331;BME280;8275;48.206;16.340;2022-11-20T08:34:07;98905.53;;;9.25;46.02
16331;BME280;8275;48.206;16.340;2022-11-20T08:36:40;98907.78;;;9.33;46.06
16331;BME280;8275;48.206;16.340;2022-11-20T08:39:13;98903.28;;;9.43;46.21
16331;BME280;8275;48.206;16.340;2022-11-20T08:41:42;98906.69;;;9.55;46.32
16331;BME280;8275;48.206;16.340;2022-11-20T08:44:10;98899.41;;;9.66;46.11
16331;BME280;8275;48.206;16.340;2022-11-20T08:46:40;98907.38;;;9.72;45.85
16331;BME280;8275;48.206;16.340;2022-11-20T08:49:12;98912.09;;;9.77;45.92
16331;BME280;8275;48.206;16.340;2022-11-20T08:51:41;98917.59;;;9.82;45.70
16331;BME280;8275;48.206;16.340;2022-11-20T08:54:09;98919.81;;;9.85;45.93
16331;BME280;8275;48.206;16.340;2022-11-20T08:56:39;98912.41;;;9.85;45.61
16331;BME280;8275;48.206;16.340;2022-11-20T08:59:08;98911.63;;;9.85;45.85
16331;BME280;8275;48.206;16.340;2022-11-20T09:01:56;98909.97;;;9.84;45.53
16331;BME280;8275;48.206;16.340;2022-11-20T09:04:25;98901.75;;;9.84;45.81
16331;BME280;8275;48.206;16.340;2022-11-20T09:06:53;98905.88;;;9.86;45.70
16331;BME280;8275;48.206;16.340;2022-11-20T09:09:22;98891.97;;;9.93;46.11
16331;BME280;8275;48.206;16.340;2022-11-20T09:11:52;98889.88;;;10.05;45.86
16331;BME280;8275;48.206;16.340;2022-11-20T09:14:20;98902.34;;;10.23;46.49
16331;BME280;8275;48.206;16.340;2022-11-20T09:16:51;98888.78;;;10.38;45.69
16331;BME280;8275;48.206;16.340;2022-11-20T09:19:20;98886.66;;;10.50;45.74
16331;BME280;8275;48.206;16.340;2022-11-20T09:22:03;98895.47;;;10.57;45.85
16331;BME280;8275;48.206;16.340;2022-11-20T09:24:32;98894.38;;;10.58;45.62
16331;BME280;8275;48.206;16.340;2022-11-20T09:27:04;98888.88;;;10.53;45.61
16331;BME280;8275;48.206;16.340;2022-11-20T09:29:33;98877.34;;;10.51;45.56
16331;BME280;8275;48.206;16.340;2022-11-20T09:32:01;98879.53;;;10.49;45.17
16331;BME280;8275;48.206;16.340;2022-11-20T09:34:30;98880.59;;;10.43;45.44
16331;BME280;8275;48.206;16.340;2022-11-20T09:36:58;98891.81;;;10.41;45.77
16331;BME280;8275;48.206;16.340;2022-11-20T09:39:32;98886.34;;;10.41;45.33
16331;BME280;8275;48.206;16.340;2022-11-20T09:42:27;98880.31;;;10.39;45.60
16331;BME280;8275;48.206;16.340;2022-11-20T09:45:14;98883.84;;;10.35;45.56
16331;BME280;8275;48.206;16.340;2022-11-20T09:48:05;98875.34;;;10.31;46.01
16331;BME280;8275;48.206;16.340;2022-11-20T09:50:42;98882.41;;;10.27;46.04
16331;BME280;8275;48.206;16.340;2022-11-20T09:53:25;98875.31;;;10.26;45.86
16331;BME280;8275;48.206;16.340;2022-11-20T09:55:57;98879.16;;;10.30;45.85
16331;BME280;8275;48.206;16.340;2022-11-20T09:58:33;98876.69;;;10.29;45.50
16331;BME280;8275;48.206;16.340;2022-11-20T10:01:12;98876.66;;;10.24;45.94
16331;BME280;8275;48.206;16.340;2022-11-20T10:03:56;98868.13;;;10.20;46.06
16331;BME280;8275;48.206;16.340;2022-11-20T10:06:30;98866.22;;;10.21;46.11
16331;BME280;8275;48.206;16.340;2022-11-20T10:09:21;98865.38;;;10.20;45.63
16331;BME280;8275;48.206;16.340;2022-11-20T10:12:07;98856.38;;;10.20;46.09
16331;BME280;8275;48.206;16.340;2022-11-20T10:14:58;98852.84;;;10.24;46.05
16331;BME280;8275;48.206;16.340;2022-11-20T10:17:50;98851.81;;;10.35;45.79
16331;BME280;8275;48.206;16.340;2022-11-20T10:20:29;98855.69;;;10.44;45.81
16331;BME280;8275;48.206;16.340;2022-11-20T10:23:27;98849.41;;;10.49;46.05
16331;BME280;8275;48.206;16.340;2022-11-20T10:26:03;98853.25;;;10.53;45.57
16331;BME280;8275;48.206;16.340;2022-11-20T10:28:46;98849.44;;;10.54;45.75
16331;BME280;8275;48.206;16.340;2022-11-20T10:31:31;98841.81;;;10.61;45.65
16331;BME280;8275;48.206;16.340;2022-11-20T10:34:06;98845.41;;;10.72;45.57
16331;BME280;8275;48.206;16.340;2022-11-20T10:36:48;98849.00;;;10.77;45.81
16331;BME280;8275;48.206;16.340;2022-11-20T10:39:28;98848.44;;;10.75;45.65
16331;BME280;8275;48.206;16.340;2022-11-20T10:42:00;98846.53;;;10.76;45.49
16331;BME280;8275;48.206;16.340;2022-11-20T10:44:29;98849.81;;;10.78;45.45
16331;BME280;8275;48.206;16.340;2022-11-20T10:47:24;98848.44;;;10.80;45.56
16331;BME280;8275;48.206;16.340;2022-11-20T10:49:55;98841.09;;;10.86;45.87
16331;BME280;8275;48.206;16.340;2022-11-20T10:52:33;98838.66;;;10.94;45.94
16331;BME280;8275;48.206;16.340;2022-11-20T10:55:13;98837.84;;;11.04;45.53
16331;BME280;8275;48.206;16.340;2022-11-20T10:57:53;98840.09;;;11.12;45.39
16331;BME280;8275;48.206;16.340;2022-11-20T11:00:24;98837.91;;;11.24;45.20
16331;BME280;8275;48.206;16.340;2022-11-20T11:02:55;98828.34;;;11.37;45.58
16331;BME280;8275;48.206;16.340;2022-11-20T11:05:37;98822.59;;;11.43;45.19
16331;BME280;8275;48.206;16.340;2022-11-20T11:08:12;98815.44;;;11.47;45.31
16331;BME280;8275;48.206;16.340;2022-11-20T11:10:49;98816.28;;;11.53;45.16
16331;BME280;8275;48.206;16.340;2022-11-20T11:13:21;98818.47;;;11.61;45.23
16331;BME280;8275;48.206;16.340;2022-11-20T11:15:50;98819.84;;;11.63;44.88
16331;BME280;8275;48.206;16.340;2022-11-20T11:18:33;98809.16;;;11.62;45.10
16331;BME280;8275;48.206;16.340;2022-11-20T11:21:04;98811.06;;;11.61;45.00
16331;BME280;8275;48.206;16.340;2022-11-20T11:23:36;98815.47;;;11.62;45.21
16331;BME280;8275;48.206;16.340;2022-11-20T11:26:19;98811.63;;;11.63;44.86
16331;BME280;8275;48.206;16.340;2022-11-20T11:28:55;98814.66;;;11.67;45.07
16331;BME280;8275;48.206;16.340;2022-11-20T11:31:25;98811.91;;;11.67;44.96
16331;BME280;8275;48.206;16.340;2022-11-20T11:34:05;98805.88;;;11.65;44.54
16331;BME280;8275;48.206;16.340;2022-11-20T11:36:35;98814.66;;;11.67;44.70
16331;BME280;8275;48.206;16.340;2022-11-20T11:39:10;98813.56;;;11.68;44.71
16331;BME280;8275;48.206;16.340;2022-11-20T11:41:41;98807.00;;;11.74;44.67
16331;BME280;8275;48.206;16.340;2022-11-20T11:44:17;98804.22;;;11.79;44.65
16331;BME280;8275;48.206;16.340;2022-11-20T11:47:08;98810.56;;;11.84;44.71
16331;BME280;8275;48.206;16.340;2022-11-20T11:49:39;98797.91;;;11.93;44.62
16331;BME280;8275;48.206;16.340;2022-11-20T11:52:13;98798.16;;;12.02;44.34
16331;BME280;8275;48.206;16.340;2022-11-20T11:54:48;98800.91;;;12.12;44.46
16331;BME280;8275;48.206;16.340;2022-11-20T11:57:28;98794.28;;;12.28;44.58
16331;BME280;8275;48.206;16.340;2022-11-20T12:00:04;98778.44;;;12.74;44.47
16331;BME280;8275;48.206;16.340;2022-11-20T12:02:48;98771.66;;;13.49;44.27
16331;BME280;8275;48.206;16.340;2022-11-20T12:05:24;98771.06;;;14.43;43.46
16331;BME280;8275;48.206;16.340;2022-11-20T12:07:58;98760.59;;;15.25;42.57
16331;BME280;8275;48.206;16.340;2022-11-20T12:10:41;98751.56;;;16.02;41.84
16331;BME280;8275;48.206;16.340;2022-11-20T12:13:25;98746.72;;;16.67;40.82
16331;BME280;8275;48.206;16.340;2022-11-20T12:15:59;98750.09;;;17.27;40.06
16331;BME280;8275;48.206;16.340;2022-11-20T12:18:29;98745.06;;;17.65;39.41
16331;BME280;8275;48.206;16.340;2022-11-20T12:21:19;98738.09;;;17.98;39.51
16331;BME280;8275;48.206;16.340;2022-11-20T12:24:23;98741.34;;;18.53;38.93
16331;BME280;8275;48.206;16.340;2022-11-20T12:27:19;98742.63;;;19.12;38.35
16331;BME280;8275;48.206;16.340;2022-11-20T12:29:56;98746.91;;;19.52;37.63
16331;BME280;8275;48.206;16.340;2022-11-20T12:33:02;98740.81;;;19.93;37.60
16331;BME280;8275;48.206;16.340;2022-11-20T12:35:49;98740.59;;;20.24;37.12
16331;BME280;8275;48.206;16.340;2022-11-20T12:38:50;98730.00;;;20.55;36.98
16331;BME280;8275;48.206;16.340;2022-11-20T12:41:40;98730.38;;;20.74;36.58
16331;BME280;8275;48.206;16.340;2022-11-20T12:44:55;98722.69;;;21.00;36.18
16331;BME280;8275;48.206;16.340;2022-11-20T12:51:40;98726.53;;;20.12;36.00
16331;BME280;8275;48.206;16.340;2022-11-20T12:54:46;98723.66;;;19.14;36.16
16331;BME280;8275;48.206;16.340;2022-11-20T12:57:29;98730.59;;;18.30;36.62
16331;BME280;8275;48.206;16.340;2022-11-20T13:00:19;98728.94;;;17.45;37.14
16331;BME280;8275;48.206;16.340;2022-11-20T13:03:16;98733.19;;;16.79;37.81
16331;BME280;8275;48.206;16.340;2022-11-20T13:05:59;98732.16;;;16.35;38.49
16331;BME280;8275;48.206;16.340;2022-11-20T13:08:33;98728.56;;;16.07;39.02
16331;BME280;8275;48.206;16.340;2022-11-20T13:11:13;98730.78;;;15.91;39.17
16331;BME280;8275;48.206;16.340;2022-11-20T13:14:13;98719.50;;;15.74;39.21
16331;BME280;8275;48.206;16.340;2022-11-20T13:16:50;98722.44;;;15.64;39.34
16331;BME280;8275;48.206;16.340;2022-11-20T13:19:21;98720.16;;;15.53;39.40
16331;BME280;8275;48.206;16.340;2022-11-20T13:21:52;98716.47;;;15.38;39.47
16331;BME280;8275;48.206;16.340;2022-11-20T13:24:28;98720.53;;;15.27;39.50
16331;BME280;8275;48.206;16.340;2022-11-20T13:27:20;98717.19;;;15.12;39.59
16331;BME280;8275;48.206;16.340;2022-11-20T13:30:12;98715.72;;;15.01;39.63
16331;BME280;8275;48.206;16.340;2022-11-20T13:32:53;98721.75;;;14.84;39.82
16331;BME280;8275;48.206;16.340;2022-11-20T13:35:34;98729.94;;;14.70;39.79
16331;BME280;8275;48.206;16.340;2022-11-20T13:38:07;98720.38;;;14.63;40.03
16331;BME280;8275;48.206;16.340;2022-11-20T13:40:38;98730.63;;;14.57;40.08
16331;BME280;8275;48.206;16.340;2022-11-20T13:43:27;98715.34;;;14.46;39.95